TimeCDT,TemperatureF,Dew PointF,Humidity,Sea Level PressureIn,VisibilityMPH,Wind Direction,Wind SpeedMPH,Gust SpeedMPH,PrecipitationIn,Events,Conditions,WindDirDegrees,DateUTC
12:51 AM,66.0,64.0,93,30.01,10.0,East,4.6,-,N/A,,Clear,100,2013-10-10 05:51:00
1:51 AM,64.9,64.0,97,30.01,8.0,East,6.9,-,N/A,,Clear,100,2013-10-10 06:51:00
2:51 AM,64.9,64.0,97,30.02,8.0,East,3.5,-,N/A,,Clear,80,2013-10-10 07:51:00
3:51 AM,64.0,63.0,96,30.01,7.0,NE,4.6,-,N/A,,Scattered Clouds,40,2013-10-10 08:51:00
4:51 AM,64.0,63.0,96,30.00,7.0,ENE,3.5,-,N/A,,Partly Cloudy,60,2013-10-10 09:51:00
5:51 AM,64.0,63.0,96,30.00,8.0,ENE,5.8,-,N/A,,Clear,70,2013-10-10 10:51:00
6:51 AM,64.0,62.1,93,29.99,6.0,ENE,5.8,-,N/A,,Clear,70,2013-10-10 11:51:00
7:51 AM,64.0,63.0,96,30.00,10.0,ENE,4.6,-,N/A,,Clear,70,2013-10-10 12:51:00
8:51 AM,71.1,66.9,87,30.02,8.0,East,4.6,-,N/A,,Clear,80,2013-10-10 13:51:00
9:51 AM,78.1,69.1,74,30.03,10.0,ESE,4.6,-,N/A,,Clear,120,2013-10-10 14:51:00
10:51 AM,84.0,68.0,58,30.04,10.0,SSE,9.2,-,N/A,,Partly Cloudy,160,2013-10-10 15:51:00
11:51 AM,87.1,66.0,49,30.01,10.0,SSE,10.4,16.1,N/A,,Scattered Clouds,150,2013-10-10 16:51:00
12:51 PM,90.0,66.0,45,29.99,10.0,SSE,11.5,18.4,N/A,,Mostly Cloudy,150,2013-10-10 17:51:00
1:51 PM,86.0,68.0,55,29.96,10.0,ESE,10.4,-,N/A,,Mostly Cloudy,120,2013-10-10 18:51:00
2:51 PM,88.0,68.0,51,29.94,10.0,ESE,13.8,21.9,N/A,,Mostly Cloudy,120,2013-10-10 19:51:00
3:51 PM,87.1,68.0,53,29.92,10.0,SE,17.3,-,N/A,,Partly Cloudy,130,2013-10-10 20:51:00
4:51 PM,84.9,68.0,57,29.91,10.0,ESE,18.4,25.3,N/A,,Partly Cloudy,120,2013-10-10 21:51:00
5:51 PM,82.9,68.0,60,29.91,10.0,ESE,17.3,23.0,N/A,,Clear,120,2013-10-10 22:51:00
6:51 PM,80.1,68.0,67,29.92,10.0,SE,12.7,-,N/A,,Partly Cloudy,130,2013-10-10 23:51:00
7:51 PM,77.0,70.0,79,29.93,10.0,SE,8.1,-,N/A,,Partly Cloudy,130,2013-10-11 00:51:00
8:51 PM,73.9,68.0,82,29.94,10.0,SE,6.9,-,N/A,,Clear,130,2013-10-11 01:51:00
9:51 PM,73.0,69.1,87,29.94,10.0,SE,6.9,-,N/A,,Clear,130,2013-10-11 02:51:00
10:51 PM,73.0,70.0,90,29.94,10.0,SE,6.9,-,N/A,,Clear,130,2013-10-11 03:51:00
11:51 PM,72.0,69.1,91,29.94,10.0,SE,5.8,-,N/A,,Clear,130,2013-10-11 04:51:00